sensor_id;sensor_type;location;lat;lon;timestamp;P1;durP1;ratioP1;P2;durP2;ratioP2
8113;SDS011;4099;52.684;9.918;2022-11-10T00:03:57;5.17;;;2.93;;
8113;SDS011;4099;52.684;9.918;2022-11-10T00:09:20;6.40;;;3.40;;
8113;SDS011;4099;52.684;9.918;2022-11-10T00:14:41;5.73;;;3.10;;
8113;SDS011;4099;52.684;9.918;2022-11-10T00:20:21;8.77;;;3.50;;
8113;SDS011;4099;52.684;9.918;2022-11-10T00:25:45;5.80;;;2.97;;
8113;SDS011;4099;52.684;9.918;2022-11-10T00:31:08;5.23;;;3.23;;
8113;SDS011;4099;52.684;9.918;2022-11-10T00:36:33;6.10;;;3.63;;
8113;SDS011;4099;52.684;9.918;2022-11-10T00:41:58;6.60;;;3.90;;
8113;SDS011;4099;52.684;9.918;2022-11-10T00:47:22;6.80;;;3.10;;
8113;SDS011;4099;52.684;9.918;2022-11-10T00:52:50;6.73;;;3.40;;
8113;SDS011;4099;52.684;9.918;2022-11-10T00:58:17;9.70;;;4.07;;
8113;SDS011;4099;52.684;9.918;2022-11-10T01:03:39;7.63;;;4.43;;
8113;SDS011;4099;52.684;9.918;2022-11-10T01:09:04;5.43;;;3.50;;
8113;SDS011;4099;52.684;9.918;2022-11-10T01:14:26;6.93;;;3.93;;
8113;SDS011;4099;52.684;9.918;2022-11-10T01:20:08;6.77;;;3.63;;
8113;SDS011;4099;52.684;9.918;2022-11-10T01:25:41;7.97;;;3.60;;
8113;SDS011;4099;52.684;9.918;2022-11-10T01:31:08;11.03;;;4.07;;
8113;SDS011;4099;52.684;9.918;2022-11-10T01:36:32;8.03;;;3.63;;
8113;SDS011;4099;52.684;9.918;2022-11-10T01:41:54;10.77;;;4.03;;
8113;SDS011;4099;52.684;9.918;2022-11-10T01:47:21;5.97;;;3.77;;
8113;SDS011;4099;52.684;9.918;2022-11-10T01:52:45;9.57;;;3.67;;
8113;SDS011;4099;52.684;9.918;2022-11-10T01:58:08;10.17;;;3.67;;
8113;SDS011;4099;52.684;9.918;2022-11-10T02:03:36;7.13;;;4.00;;
8113;SDS011;4099;52.684;9.918;2022-11-10T02:09:08;7.33;;;3.40;;
8113;SDS011;4099;52.684;9.918;2022-11-10T02:14:32;7.43;;;3.77;;
8113;SDS011;4099;52.684;9.918;2022-11-10T02:20:00;10.43;;;4.53;;
8113;SDS011;4099;52.684;9.918;2022-11-10T02:25:26;8.80;;;3.87;;
8113;SDS011;4099;52.684;9.918;2022-11-10T02:30:52;9.10;;;4.13;;
8113;SDS011;4099;52.684;9.918;2022-11-10T02:36:16;6.63;;;3.97;;
8113;SDS011;4099;52.684;9.918;2022-11-10T02:41:40;8.33;;;4.40;;
8113;SDS011;4099;52.684;9.918;2022-11-10T02:47:01;7.40;;;4.73;;
8113;SDS011;4099;52.684;9.918;2022-11-10T02:52:26;6.00;;;4.43;;
8113;SDS011;4099;52.684;9.918;2022-11-10T02:57:48;6.50;;;3.97;;
8113;SDS011;4099;52.684;9.918;2022-11-10T03:03:10;9.90;;;4.73;;
8113;SDS011;4099;52.684;9.918;2022-11-10T03:08:32;8.03;;;4.50;;
8113;SDS011;4099;52.684;9.918;2022-11-10T03:13:55;10.17;;;4.70;;
8113;SDS011;4099;52.684;9.918;2022-11-10T03:19:31;10.67;;;5.13;;
8113;SDS011;4099;52.684;9.918;2022-11-10T03:24:54;7.70;;;4.60;;
8113;SDS011;4099;52.684;9.918;2022-11-10T03:30:17;7.77;;;4.80;;
8113;SDS011;4099;52.684;9.918;2022-11-10T03:35:40;9.83;;;5.30;;
8113;SDS011;4099;52.684;9.918;2022-11-10T03:41:01;9.60;;;5.77;;
8113;SDS011;4099;52.684;9.918;2022-11-10T03:46:24;9.80;;;5.83;;
8113;SDS011;4099;52.684;9.918;2022-11-10T03:51:47;12.20;;;6.80;;
8113;SDS011;4099;52.684;9.918;2022-11-10T03:57:14;14.47;;;6.70;;
8113;SDS011;4099;52.684;9.918;2022-11-10T04:02:42;11.83;;;7.30;;
8113;SDS011;4099;52.684;9.918;2022-11-10T04:08:06;16.23;;;7.70;;
8113;SDS011;4099;52.684;9.918;2022-11-10T04:13:53;13.80;;;7.33;;
8113;SDS011;4099;52.684;9.918;2022-11-10T04:19:33;12.93;;;7.97;;
8113;SDS011;4099;52.684;9.918;2022-11-10T04:24:56;13.90;;;8.87;;
8113;SDS011;4099;52.684;9.918;2022-11-10T04:30:22;12.43;;;8.10;;
8113;SDS011;4099;52.684;9.918;2022-11-10T04:35:47;12.53;;;7.77;;
8113;SDS011;4099;52.684;9.918;2022-11-10T04:41:12;13.03;;;9.03;;
8113;SDS011;4099;52.684;9.918;2022-11-10T04:46:34;17.93;;;9.60;;
8113;SDS011;4099;52.684;9.918;2022-11-10T04:51:59;16.47;;;9.33;;
8113;SDS011;4099;52.684;9.918;2022-11-10T04:57:20;15.17;;;9.57;;
8113;SDS011;4099;52.684;9.918;2022-11-10T05:02:41;16.33;;;10.17;;
8113;SDS011;4099;52.684;9.918;2022-11-10T05:08:04;16.10;;;10.03;;
8113;SDS011;4099;52.684;9.918;2022-11-10T05:13:26;16.10;;;11.27;;
8113;SDS011;4099;52.684;9.918;2022-11-10T05:18:50;19.60;;;11.30;;
8113;SDS011;4099;52.684;9.918;2022-11-10T05:24:14;15.57;;;10.70;;
8113;SDS011;4099;52.684;9.918;2022-11-10T05:29:38;15.00;;;11.30;;
8113;SDS011;4099;52.684;9.918;2022-11-10T05:34:59;17.07;;;10.63;;
8113;SDS011;4099;52.684;9.918;2022-11-10T05:40:22;18.57;;;11.33;;
8113;SDS011;4099;52.684;9.918;2022-11-10T05:45:44;16.60;;;10.67;;
8113;SDS011;4099;52.684;9.918;2022-11-10T05:51:06;20.07;;;11.20;;
8113;SDS011;4099;52.684;9.918;2022-11-10T05:56:29;17.70;;;12.03;;
8113;SDS011;4099;52.684;9.918;2022-11-10T06:01:51;15.77;;;11.77;;
8113;SDS011;4099;52.684;9.918;2022-11-10T06:07:15;20.63;;;13.03;;
8113;SDS011;4099;52.684;9.918;2022-11-10T06:12:43;20.37;;;12.47;;
8113;SDS011;4099;52.684;9.918;2022-11-10T06:18:05;21.07;;;13.07;;
8113;SDS011;4099;52.684;9.918;2022-11-10T06:23:27;24.43;;;13.03;;
8113;SDS011;4099;52.684;9.918;2022-11-10T06:28:54;18.47;;;13.03;;
8113;SDS011;4099;52.684;9.918;2022-11-10T06:34:26;20.80;;;13.40;;
8113;SDS011;4099;52.684;9.918;2022-11-10T06:39:49;22.83;;;14.80;;
8113;SDS011;4099;52.684;9.918;2022-11-10T06:45:14;23.30;;;14.33;;
8113;SDS011;4099;52.684;9.918;2022-11-10T06:50:41;21.83;;;14.97;;
8113;SDS011;4099;52.684;9.918;2022-11-10T06:56:04;23.23;;;15.27;;
8113;SDS011;4099;52.684;9.918;2022-11-10T07:01:36;20.17;;;14.77;;
8113;SDS011;4099;52.684;9.918;2022-11-10T07:07:00;22.00;;;14.97;;
8113;SDS011;4099;52.684;9.918;2022-11-10T07:12:25;22.33;;;15.17;;
8113;SDS011;4099;52.684;9.918;2022-11-10T07:17:51;23.03;;;15.37;;
8113;SDS011;4099;52.684;9.918;2022-11-10T07:23:24;25.67;;;15.63;;
8113;SDS011;4099;52.684;9.918;2022-11-10T07:29:02;23.43;;;16.53;;
8113;SDS011;4099;52.684;9.918;2022-11-10T07:34:27;31.90;;;18.20;;
8113;SDS011;4099;52.684;9.918;2022-11-10T07:39:49;23.47;;;16.57;;
8113;SDS011;4099;52.684;9.918;2022-11-10T07:45:13;26.40;;;17.13;;
8113;SDS011;4099;52.684;9.918;2022-11-10T07:50:50;27.80;;;17.37;;
8113;SDS011;4099;52.684;9.918;2022-11-10T07:56:25;22.77;;;17.33;;
8113;SDS011;4099;52.684;9.918;2022-11-10T08:01:49;30.03;;;16.93;;
8113;SDS011;4099;52.684;9.918;2022-11-10T08:07:14;24.33;;;17.33;;
8113;SDS011;4099;52.684;9.918;2022-11-10T08:12:38;22.37;;;16.27;;
8113;SDS011;4099;52.684;9.918;2022-11-10T08:18:21;23.60;;;16.93;;
8113;SDS011;4099;52.684;9.918;2022-11-10T08:23:49;24.30;;;16.43;;
8113;SDS011;4099;52.684;9.918;2022-11-10T08:29:18;24.93;;;15.93;;
8113;SDS011;4099;52.684;9.918;2022-11-10T08:34:48;23.43;;;15.53;;
8113;SDS011;4099;52.684;9.918;2022-11-10T08:40:18;24.63;;;16.37;;
8113;SDS011;4099;52.684;9.918;2022-11-10T08:45:45;20.43;;;14.90;;
8113;SDS011;4099;52.684;9.918;2022-11-10T08:51:10;21.37;;;15.40;;
8113;SDS011;4099;52.684;9.918;2022-11-10T08:56:38;22.20;;;14.50;;
8113;SDS011;4099;52.684;9.918;2022-11-10T09:02:01;21.33;;;14.17;;
8113;SDS011;4099;52.684;9.918;2022-11-10T09:07:25;19.47;;;13.17;;
8113;SDS011;4099;52.684;9.918;2022-11-10T09:13:10;22.80;;;13.53;;
8113;SDS011;4099;52.684;9.918;2022-11-10T09:18:36;19.47;;;13.20;;
8113;SDS011;4099;52.684;9.918;2022-11-10T09:24:07;20.73;;;12.27;;
8113;SDS011;4099;52.684;9.918;2022-11-10T09:29:41;23.93;;;15.13;;
8113;SDS011;4099;52.684;9.918;2022-11-10T09:35:03;16.83;;;11.00;;
8113;SDS011;4099;52.684;9.918;2022-11-10T09:40:42;13.67;;;10.10;;
8113;SDS011;4099;52.684;9.918;2022-11-10T09:46:34;21.20;;;11.60;;
8113;SDS011;4099;52.684;9.918;2022-11-10T09:52:01;13.83;;;9.60;;
8113;SDS011;4099;52.684;9.918;2022-11-10T09:57:24;16.60;;;10.93;;
8113;SDS011;4099;52.684;9.918;2022-11-10T10:02:49;18.30;;;9.67;;
8113;SDS011;4099;52.684;9.918;2022-11-10T10:08:21;16.93;;;9.73;;
8113;SDS011;4099;52.684;9.918;2022-11-10T10:14:08;17.83;;;9.43;;
8113;SDS011;4099;52.684;9.918;2022-11-10T10:19:43;13.53;;;8.50;;
8113;SDS011;4099;52.684;9.918;2022-11-10T10:25:17;17.10;;;9.63;;
8113;SDS011;4099;52.684;9.918;2022-11-10T10:30:52;16.50;;;9.77;;
8113;SDS011;4099;52.684;9.918;2022-11-10T10:36:21;16.57;;;8.83;;
8113;SDS011;4099;52.684;9.918;2022-11-10T10:41:50;15.57;;;8.60;;
8113;SDS011;4099;52.684;9.918;2022-11-10T10:47:13;12.43;;;7.60;;
8113;SDS011;4099;52.684;9.918;2022-11-10T10:52:40;14.00;;;6.97;;
8113;SDS011;4099;52.684;9.918;2022-11-10T10:58:03;19.50;;;8.77;;
8113;SDS011;4099;52.684;9.918;2022-11-10T11:03:39;12.77;;;6.77;;
8113;SDS011;4099;52.684;9.918;2022-11-10T11:09:07;11.63;;;6.90;;
8113;SDS011;4099;52.684;9.918;2022-11-10T11:14:52;12.03;;;7.20;;
8113;SDS011;4099;52.684;9.918;2022-11-10T11:20:33;12.50;;;7.13;;
8113;SDS011;4099;52.684;9.918;2022-11-10T11:26:04;16.83;;;7.57;;
8113;SDS011;4099;52.684;9.918;2022-11-10T11:31:32;13.43;;;7.27;;
8113;SDS011;4099;52.684;9.918;2022-11-10T11:37:04;10.77;;;8.13;;
8113;SDS011;4099;52.684;9.918;2022-11-10T11:42:39;12.97;;;6.17;;
8113;SDS011;4099;52.684;9.918;2022-11-10T11:54:10;10.23;;;6.00;;
8113;SDS011;4099;52.684;9.918;2022-11-10T11:59:44;13.27;;;5.33;;
8113;SDS011;4099;52.684;9.918;2022-11-10T12:05:25;10.00;;;5.90;;
8113;SDS011;4099;52.684;9.918;2022-11-10T12:10:56;11.17;;;5.57;;
8113;SDS011;4099;52.684;9.918;2022-11-10T12:16:24;12.37;;;5.97;;
8113;SDS011;4099;52.684;9.918;2022-11-10T12:21:49;12.77;;;6.17;;
8113;SDS011;4099;52.684;9.918;2022-11-10T12:27:11;9.57;;;5.83;;
8113;SDS011;4099;52.684;9.918;2022-11-10T12:32:37;8.07;;;4.97;;
8113;SDS011;4099;52.684;9.918;2022-11-10T12:38:06;13.50;;;5.67;;
8113;SDS011;4099;52.684;9.918;2022-11-10T12:43:32;9.00;;;4.70;;
8113;SDS011;4099;52.684;9.918;2022-11-10T12:48:59;8.77;;;5.07;;
8113;SDS011;4099;52.684;9.918;2022-11-10T12:54:26;11.90;;;4.33;;
8113;SDS011;4099;52.684;9.918;2022-11-10T12:59:50;10.10;;;3.83;;
8113;SDS011;4099;52.684;9.918;2022-11-10T13:10:59;10.07;;;3.83;;
8113;SDS011;4099;52.684;9.918;2022-11-10T13:22:14;8.43;;;3.50;;
8113;SDS011;4099;52.684;9.918;2022-11-10T13:27:52;5.50;;;3.03;;
8113;SDS011;4099;52.684;9.918;2022-11-10T13:38:55;24.77;;;16.33;;
8113;SDS011;4099;52.684;9.918;2022-11-10T13:44:23;10.13;;;4.23;;
8113;SDS011;4099;52.684;9.918;2022-11-10T13:49:49;10.57;;;3.90;;
8113;SDS011;4099;52.684;9.918;2022-11-10T13:55:20;9.03;;;4.70;;
8113;SDS011;4099;52.684;9.918;2022-11-10T14:06:47;10.30;;;2.60;;
8113;SDS011;4099;52.684;9.918;2022-11-10T14:12:13;9.53;;;2.70;;
8113;SDS011;4099;52.684;9.918;2022-11-10T14:17:43;7.20;;;2.97;;
8113;SDS011;4099;52.684;9.918;2022-11-10T14:23:07;8.87;;;3.50;;
8113;SDS011;4099;52.684;9.918;2022-11-10T14:28:38;11.80;;;4.60;;
8113;SDS011;4099;52.684;9.918;2022-11-10T14:34:00;9.83;;;4.33;;
8113;SDS011;4099;52.684;9.918;2022-11-10T14:39:23;8.90;;;3.20;;
8113;SDS011;4099;52.684;9.918;2022-11-10T14:44:47;7.90;;;2.43;;
8113;SDS011;4099;52.684;9.918;2022-11-10T14:50:17;6.87;;;2.70;;
8113;SDS011;4099;52.684;9.918;2022-11-10T14:55:42;19.43;;;13.40;;
8113;SDS011;4099;52.684;9.918;2022-11-10T15:01:04;6.50;;;2.97;;
8113;SDS011;4099;52.684;9.918;2022-11-10T15:06:27;8.80;;;3.33;;
8113;SDS011;4099;52.684;9.918;2022-11-10T15:11:50;12.23;;;5.73;;
8113;SDS011;4099;52.684;9.918;2022-11-10T15:17:12;8.73;;;3.10;;
8113;SDS011;4099;52.684;9.918;2022-11-10T15:22:35;6.63;;;3.00;;
8113;SDS011;4099;52.684;9.918;2022-11-10T15:27:56;5.40;;;2.80;;
8113;SDS011;4099;52.684;9.918;2022-11-10T15:33:20;13.63;;;5.43;;
8113;SDS011;4099;52.684;9.918;2022-11-10T15:39:00;8.63;;;3.27;;
8113;SDS011;4099;52.684;9.918;2022-11-10T15:44:24;11.60;;;4.03;;
8113;SDS011;4099;52.684;9.918;2022-11-10T15:49:46;6.53;;;2.77;;
8113;SDS011;4099;52.684;9.918;2022-11-10T15:55:19;10.63;;;3.33;;
8113;SDS011;4099;52.684;9.918;2022-11-10T16:00:40;11.67;;;3.40;;
8113;SDS011;4099;52.684;9.918;2022-11-10T16:06:00;9.27;;;3.00;;
8113;SDS011;4099;52.684;9.918;2022-11-10T16:11:22;9.60;;;2.70;;
8113;SDS011;4099;52.684;9.918;2022-11-10T16:16:43;8.47;;;3.80;;
8113;SDS011;4099;52.684;9.918;2022-11-10T16:22:03;9.80;;;4.30;;
8113;SDS011;4099;52.684;9.918;2022-11-10T16:27:25;8.40;;;3.43;;
8113;SDS011;4099;52.684;9.918;2022-11-10T16:32:46;11.13;;;4.83;;
8113;SDS011;4099;52.684;9.918;2022-11-10T16:38:08;14.13;;;6.80;;
8113;SDS011;4099;52.684;9.918;2022-11-10T16:43:37;8.57;;;4.40;;
8113;SDS011;4099;52.684;9.918;2022-11-10T16:48:58;12.27;;;6.23;;
8113;SDS011;4099;52.684;9.918;2022-11-10T16:54:19;15.77;;;6.63;;
8113;SDS011;4099;52.684;9.918;2022-11-10T16:59:41;16.00;;;9.20;;
8113;SDS011;4099;52.684;9.918;2022-11-10T17:05:03;11.43;;;8.33;;
8113;SDS011;4099;52.684;9.918;2022-11-10T17:10:24;8.73;;;4.20;;
8113;SDS011;4099;52.684;9.918;2022-11-10T17:15:46;14.37;;;8.47;;
8113;SDS011;4099;52.684;9.918;2022-11-10T17:21:07;9.70;;;4.37;;
8113;SDS011;4099;52.684;9.918;2022-11-10T17:26:27;10.53;;;4.90;;
8113;SDS011;4099;52.684;9.918;2022-11-10T17:31:50;15.63;;;5.80;;
8113;SDS011;4099;52.684;9.918;2022-11-10T17:37:10;18.27;;;7.10;;
8113;SDS011;4099;52.684;9.918;2022-11-10T17:42:33;11.00;;;5.77;;
8113;SDS011;4099;52.684;9.918;2022-11-10T17:47:57;9.97;;;5.40;;
8113;SDS011;4099;52.684;9.918;2022-11-10T17:53:18;13.83;;;6.60;;
8113;SDS011;4099;52.684;9.918;2022-11-10T17:58:41;19.47;;;10.50;;
8113;SDS011;4099;52.684;9.918;2022-11-10T18:04:02;14.47;;;7.50;;
8113;SDS011;4099;52.684;9.918;2022-11-10T18:09:22;13.30;;;6.17;;
8113;SDS011;4099;52.684;9.918;2022-11-10T18:14:43;11.23;;;5.90;;
8113;SDS011;4099;52.684;9.918;2022-11-10T18:20:05;9.10;;;5.47;;
8113;SDS011;4099;52.684;9.918;2022-11-10T18:25:27;12.00;;;6.07;;
8113;SDS011;4099;52.684;9.918;2022-11-10T18:30:48;10.53;;;6.07;;
8113;SDS011;4099;52.684;9.918;2022-11-10T18:36:09;13.50;;;6.67;;
8113;SDS011;4099;52.684;9.918;2022-11-10T18:41:30;12.43;;;5.50;;
8113;SDS011;4099;52.684;9.918;2022-11-10T18:47:10;11.27;;;5.00;;
8113;SDS011;4099;52.684;9.918;2022-11-10T18:52:33;8.27;;;4.70;;
8113;SDS011;4099;52.684;9.918;2022-11-10T18:57:53;7.63;;;4.20;;
8113;SDS011;4099;52.684;9.918;2022-11-10T19:03:14;7.63;;;3.47;;
8113;SDS011;4099;52.684;9.918;2022-11-10T19:08:36;10.67;;;4.50;;
8113;SDS011;4099;52.684;9.918;2022-11-10T19:13:57;11.70;;;4.87;;
8113;SDS011;4099;52.684;9.918;2022-11-10T19:19:19;9.50;;;3.93;;
8113;SDS011;4099;52.684;9.918;2022-11-10T19:24:41;10.33;;;3.70;;
8113;SDS011;4099;52.684;9.918;2022-11-10T19:30:02;8.43;;;3.70;;
8113;SDS011;4099;52.684;9.918;2022-11-10T19:35:23;8.13;;;3.80;;
8113;SDS011;4099;52.684;9.918;2022-11-10T19:40:45;11.00;;;6.23;;
8113;SDS011;4099;52.684;9.918;2022-11-10T19:46:07;11.67;;;5.47;;
8113;SDS011;4099;52.684;9.918;2022-11-10T19:51:31;8.90;;;4.40;;
8113;SDS011;4099;52.684;9.918;2022-11-10T19:56:53;9.27;;;4.33;;
8113;SDS011;4099;52.684;9.918;2022-11-10T20:02:14;6.23;;;3.60;;
8113;SDS011;4099;52.684;9.918;2022-11-10T20:07:34;12.67;;;6.80;;
8113;SDS011;4099;52.684;9.918;2022-11-10T20:13:28;13.13;;;6.80;;
8113;SDS011;4099;52.684;9.918;2022-11-10T20:18:49;11.17;;;6.67;;
8113;SDS011;4099;52.684;9.918;2022-11-10T20:24:11;11.07;;;4.50;;
8113;SDS011;4099;52.684;9.918;2022-11-10T20:29:33;7.10;;;3.43;;
8113;SDS011;4099;52.684;9.918;2022-11-10T20:34:54;9.07;;;3.70;;
8113;SDS011;4099;52.684;9.918;2022-11-10T20:40:14;7.60;;;4.00;;
8113;SDS011;4099;52.684;9.918;2022-11-10T20:45:37;7.13;;;3.80;;
8113;SDS011;4099;52.684;9.918;2022-11-10T20:50:58;8.13;;;4.10;;
8113;SDS011;4099;52.684;9.918;2022-11-10T20:56:20;9.67;;;3.93;;
8113;SDS011;4099;52.684;9.918;2022-11-10T21:01:42;7.90;;;3.50;;
8113;SDS011;4099;52.684;9.918;2022-11-10T21:07:03;6.93;;;3.90;;
8113;SDS011;4099;52.684;9.918;2022-11-10T21:12:24;7.87;;;3.60;;
8113;SDS011;4099;52.684;9.918;2022-11-10T21:18:03;5.67;;;3.23;;
8113;SDS011;4099;52.684;9.918;2022-11-10T21:23:24;11.40;;;5.53;;
8113;SDS011;4099;52.684;9.918;2022-11-10T21:28:45;8.53;;;4.00;;
8113;SDS011;4099;52.684;9.918;2022-11-10T21:34:06;8.53;;;4.10;;
8113;SDS011;4099;52.684;9.918;2022-11-10T21:39:27;7.37;;;3.80;;
8113;SDS011;4099;52.684;9.918;2022-11-10T21:44:50;7.90;;;3.73;;
8113;SDS011;4099;52.684;9.918;2022-11-10T21:50:12;9.00;;;3.43;;
8113;SDS011;4099;52.684;9.918;2022-11-10T21:55:33;7.70;;;3.57;;
8113;SDS011;4099;52.684;9.918;2022-11-10T22:00:59;7.20;;;3.13;;
8113;SDS011;4099;52.684;9.918;2022-11-10T22:06:21;4.53;;;2.90;;
8113;SDS011;4099;52.684;9.918;2022-11-10T22:12:01;8.73;;;3.27;;
8113;SDS011;4099;52.684;9.918;2022-11-10T22:17:40;6.67;;;3.87;;
8113;SDS011;4099;52.684;9.918;2022-11-10T22:23:20;6.07;;;2.90;;
8113;SDS011;4099;52.684;9.918;2022-11-10T22:29:01;7.17;;;3.10;;
8113;SDS011;4099;52.684;9.918;2022-11-10T22:34:22;6.37;;;3.10;;
8113;SDS011;4099;52.684;9.918;2022-11-10T22:39:44;8.10;;;3.07;;
8113;SDS011;4099;52.684;9.918;2022-11-10T22:45:23;5.33;;;3.07;;
8113;SDS011;4099;52.684;9.918;2022-11-10T22:50:51;9.13;;;3.10;;
8113;SDS011;4099;52.684;9.918;2022-11-10T22:56:15;10.23;;;3.10;;
8113;SDS011;4099;52.684;9.918;2022-11-10T23:01:37;7.13;;;3.07;;
8113;SDS011;4099;52.684;9.918;2022-11-10T23:06:59;4.97;;;3.03;;
8113;SDS011;4099;52.684;9.918;2022-11-10T23:12:21;7.83;;;3.27;;
8113;SDS011;4099;52.684;9.918;2022-11-10T23:17:42;6.70;;;2.73;;
8113;SDS011;4099;52.684;9.918;2022-11-10T23:23:02;4.23;;;2.77;;
8113;SDS011;4099;52.684;9.918;2022-11-10T23:28:26;3.87;;;2.60;;
8113;SDS011;4099;52.684;9.918;2022-11-10T23:33:49;9.03;;;3.20;;
8113;SDS011;4099;52.684;9.918;2022-11-10T23:39:10;7.03;;;2.83;;
8113;SDS011;4099;52.684;9.918;2022-11-10T23:44:33;4.77;;;2.80;;
8113;SDS011;4099;52.684;9.918;2022-11-10T23:49:54;4.70;;;2.80;;
8113;SDS011;4099;52.684;9.918;2022-11-10T23:55:15;5.23;;;2.70;;
